Time,TemperatureF,DewpointF,PressureIn,WindDirection,WindDirectionDegrees,WindSpeedMPH,WindSpeedGustMPH,Humidity,HourlyPrecipIn,Conditions,Clouds,dailyrainin,SoftwareType,DateUTC
2013-07-08 00:01:00,72.2,71.0,29.92,SW,232,1.0,4.0,97,0.00,,,0.00,weatherlink.com 1.10,2013-07-08 04:01:00,
2013-07-08 00:16:00,72.1,71.0,29.92,South,179,0.0,7.0,97,0.00,,,0.00,weatherlink.com 1.10,2013-07-08 04:16:00,
2013-07-08 00:31:00,72.0,71.0,29.91,SSW,193,2.0,5.0,97,0.00,,,0.00,weatherlink.com 1.10,2013-07-08 04:31:00,
2013-07-08 00:46:00,71.7,71.0,29.90,SW,224,1.0,4.0,97,0.00,,,0.00,weatherlink.com 1.10,2013-07-08 04:46:00,
2013-07-08 01:01:00,71.6,71.0,29.90,SW,217,2.0,6.0,97,0.00,,,0.00,weatherlink.com 1.10,2013-07-08 05:01:00,
2013-07-08 01:16:00,71.4,71.0,29.90,SSE,159,2.0,5.0,97,0.00,,,0.00,weatherlink.com 1.10,2013-07-08 05:16:00,
2013-07-08 01:31:00,71.4,71.0,29.90,SW,215,4.0,9.0,98,0.00,,,0.00,weatherlink.com 1.10,2013-07-08 05:31:00,
2013-07-08 01:46:00,71.5,71.0,29.91,SW,235,10.0,11.0,98,0.00,,,0.00,weatherlink.com 1.10,2013-07-08 05:46:00,
2013-07-08 02:01:00,71.8,71.0,29.91,SE,143,0.0,9.0,98,0.00,,,0.00,weatherlink.com 1.10,2013-07-08 06:01:00,
2013-07-08 02:16:00,71.9,71.0,29.91,SSW,193,4.0,6.0,98,0.00,,,0.00,weatherlink.com 1.10,2013-07-08 06:16:00,
2013-07-08 02:31:00,71.9,71.0,29.91,South,191,2.0,7.0,98,0.00,,,0.00,weatherlink.com 1.10,2013-07-08 06:31:00,
2013-07-08 02:46:00,72.0,71.0,29.91,SSE,151,2.0,5.0,98,0.00,,,0.00,weatherlink.com 1.10,2013-07-08 06:46:00,
2013-07-08 03:01:00,72.0,71.0,29.91,WSW,238,3.0,5.0,98,0.00,,,0.00,weatherlink.com 1.10,2013-07-08 07:01:00,
2013-07-08 03:16:00,71.9,71.0,29.91,NNE,27,2.0,5.0,97,0.00,,,0.00,weatherlink.com 1.10,2013-07-08 07:16:00,
2013-07-08 03:31:00,71.9,71.0,29.91,WSW,238,3.0,6.0,97,0.00,,,0.00,weatherlink.com 1.10,2013-07-08 07:31:00,
2013-07-08 03:46:00,72.0,71.0,29.91,WSW,243,0.0,6.0,97,0.00,,,0.00,weatherlink.com 1.10,2013-07-08 07:46:00,
2013-07-08 04:01:00,72.0,71.0,29.91,SW,225,8.0,8.0,97,0.00,,,0.00,weatherlink.com 1.10,2013-07-08 08:01:00,
2013-07-08 04:16:00,71.9,71.0,29.91,West,280,0.0,5.0,97,0.00,,,0.00,weatherlink.com 1.10,2013-07-08 08:16:00,
2013-07-08 04:31:00,71.8,71.0,29.91,West,262,0.0,4.0,97,0.00,,,0.00,weatherlink.com 1.10,2013-07-08 08:31:00,
2013-07-08 04:46:00,71.6,71.0,29.91,SSW,213,1.0,5.0,97,0.00,,,0.00,weatherlink.com 1.10,2013-07-08 08:46:00,
2013-07-08 05:01:00,71.4,71.0,29.91,West,268,0.0,5.0,97,0.00,,,0.00,weatherlink.com 1.10,2013-07-08 09:01:00,
2013-07-08 05:16:00,71.3,70.0,29.91,SSE,158,0.0,5.0,97,0.00,,,0.00,weatherlink.com 1.10,2013-07-08 09:16:00,
2013-07-08 05:31:00,71.4,71.0,29.91,SE,146,0.0,4.0,97,0.00,,,0.00,weatherlink.com 1.10,2013-07-08 09:31:00,
2013-07-08 05:46:00,71.8,71.0,29.92,WSW,247,2.0,5.0,97,0.00,,,0.00,weatherlink.com 1.10,2013-07-08 09:46:00,
2013-07-08 06:01:00,72.1,71.0,29.92,West,262,0.0,5.0,96,0.00,,,0.00,weatherlink.com 1.10,2013-07-08 10:01:00,
2013-07-08 06:16:00,72.9,72.0,29.92,SSW,205,3.0,8.0,96,0.00,,,0.00,weatherlink.com 1.10,2013-07-08 10:16:00,
2013-07-08 06:31:00,74.1,73.0,29.92,WNW,285,2.0,6.0,95,0.00,,,0.00,weatherlink.com 1.10,2013-07-08 10:31:00,
2013-07-08 06:47:00,74.8,73.0,29.92,SSE,152,3.0,7.0,93,0.00,,,0.00,weatherlink.com 1.10,2013-07-08 10:47:00,
2013-07-08 07:01:00,75.2,73.0,29.92,SSW,203,2.0,8.0,92,0.00,,,0.00,weatherlink.com 1.10,2013-07-08 11:01:00,
2013-07-08 07:16:00,75.6,73.0,29.93,WSW,246,7.0,13.0,91,0.00,,,0.00,weatherlink.com 1.10,2013-07-08 11:16:00,
2013-07-08 07:31:00,76.0,73.0,29.92,SW,228,3.0,11.0,90,0.00,,,0.00,weatherlink.com 1.10,2013-07-08 11:31:00,
2013-07-08 07:46:00,76.4,73.0,29.92,WNW,286,6.0,13.0,88,0.00,,,0.00,weatherlink.com 1.10,2013-07-08 11:46:00,
2013-07-08 08:01:00,76.4,72.0,29.93,WSW,243,3.0,13.0,87,0.00,,,0.00,weatherlink.com 1.10,2013-07-08 12:01:00,
2013-07-08 08:16:00,76.7,72.0,29.93,WNW,293,3.0,16.0,86,0.00,,,0.00,weatherlink.com 1.10,2013-07-08 12:16:00,
2013-07-08 08:31:00,77.0,73.0,29.93,NNW,332,5.0,10.0,86,0.00,,,0.00,weatherlink.com 1.10,2013-07-08 12:31:00,
2013-07-08 08:46:00,77.0,73.0,29.93,NNW,342,2.0,16.0,86,0.00,,,0.00,weatherlink.com 1.10,2013-07-08 12:46:00,
2013-07-08 09:01:00,76.9,73.0,29.93,SW,232,5.0,12.0,86,0.00,,,0.00,weatherlink.com 1.10,2013-07-08 13:01:00,
2013-07-08 09:16:00,77.2,72.0,29.93,SW,236,3.0,12.0,85,0.00,,,0.00,weatherlink.com 1.10,2013-07-08 13:16:00,
2013-07-08 09:31:00,77.5,72.0,29.93,SW,226,11.0,12.0,83,0.00,,,0.00,weatherlink.com 1.10,2013-07-08 13:31:00,
2013-07-08 09:46:00,77.7,72.0,29.93,NNW,345,5.0,15.0,83,0.00,,,0.00,weatherlink.com 1.10,2013-07-08 13:46:00,
2013-07-08 10:01:00,77.7,73.0,29.93,SE,142,4.0,14.0,84,0.00,,,0.00,weatherlink.com 1.10,2013-07-08 14:01:00,
2013-07-08 10:16:00,77.1,72.0,29.94,NW,326,5.0,13.0,85,0.00,,,0.00,weatherlink.com 1.10,2013-07-08 14:16:00,
2013-07-08 10:31:00,77.6,73.0,29.93,SSW,198,2.0,11.0,85,0.00,,,0.00,weatherlink.com 1.10,2013-07-08 14:31:00,
2013-07-08 10:46:00,78.4,73.0,29.93,South,176,4.0,11.0,84,0.00,,,0.00,weatherlink.com 1.10,2013-07-08 14:46:00,
2013-07-08 11:01:00,77.5,72.0,29.93,NW,304,3.0,11.0,84,0.00,,,0.00,weatherlink.com 1.10,2013-07-08 15:01:00,
2013-07-08 11:16:00,77.4,72.0,29.93,WSW,255,4.0,14.0,84,0.00,,,0.00,weatherlink.com 1.10,2013-07-08 15:16:00,
2013-07-08 11:31:00,77.9,73.0,29.94,South,179,1.0,17.0,84,0.00,,,0.00,weatherlink.com 1.10,2013-07-08 15:31:00,
2013-07-08 11:46:00,78.2,73.0,29.95,NW,316,6.0,10.0,83,0.00,,,0.00,weatherlink.com 1.10,2013-07-08 15:46:00,
2013-07-08 12:01:00,79.2,74.0,29.94,NNW,344,3.0,11.0,83,0.00,,,0.00,weatherlink.com 1.10,2013-07-08 16:01:00,
2013-07-08 12:16:00,79.6,74.0,29.94,WSW,239,3.0,13.0,82,0.00,,,0.00,weatherlink.com 1.10,2013-07-08 16:16:00,
2013-07-08 12:31:00,80.3,74.0,29.94,West,272,6.0,14.0,80,0.00,,,0.00,weatherlink.com 1.10,2013-07-08 16:31:00,
2013-07-08 13:01:00,78.8,73.0,29.95,West,260,5.0,13.0,82,0.00,,,0.00,weatherlink.com 1.10,2013-07-08 17:01:00,
2013-07-08 13:16:00,78.6,73.0,29.95,NNE,25,5.0,15.0,83,0.00,,,0.00,weatherlink.com 1.10,2013-07-08 17:16:00,
2013-07-08 13:46:00,78.9,73.0,29.94,SW,224,7.0,12.0,83,0.00,,,0.00,weatherlink.com 1.10,2013-07-08 17:46:00,
2013-07-08 14:01:00,78.6,73.0,29.95,WSW,238,3.0,12.0,83,0.00,,,0.00,weatherlink.com 1.10,2013-07-08 18:01:00,
2013-07-08 14:46:00,78.2,73.0,29.95,East,101,4.0,15.0,83,0.00,,,0.00,weatherlink.com 1.10,2013-07-08 18:46:00,
2013-07-08 15:16:00,79.6,73.0,29.95,NNW,338,2.0,13.0,81,0.00,,,0.00,weatherlink.com 1.10,2013-07-08 19:16:00,
2013-07-08 15:31:00,79.3,73.0,29.94,SE,126,2.0,12.0,81,0.00,,,0.00,weatherlink.com 1.10,2013-07-08 19:31:00,
2013-07-08 16:16:00,77.9,72.0,29.94,NNE,33,4.0,14.0,83,0.00,,,0.00,weatherlink.com 1.10,2013-07-08 20:16:00,
2013-07-08 16:31:00,78.0,73.0,29.95,West,277,2.0,9.0,84,0.00,,,0.00,weatherlink.com 1.10,2013-07-08 20:31:00,
2013-07-08 17:02:00,77.9,73.0,29.94,South,172,2.0,14.0,84,0.00,,,0.00,weatherlink.com 1.10,2013-07-08 21:02:00,
2013-07-08 17:17:00,78.5,73.0,29.94,SW,235,5.0,9.0,83,0.00,,,0.00,weatherlink.com 1.10,2013-07-08 21:17:00,
2013-07-08 17:32:00,78.4,73.0,29.94,SSW,203,3.0,13.0,82,0.00,,,0.00,weatherlink.com 1.10,2013-07-08 21:32:00,
2013-07-08 17:47:00,77.6,72.0,29.94,WNW,297,3.0,15.0,83,0.00,,,0.00,weatherlink.com 1.10,2013-07-08 21:47:00,
2013-07-08 18:02:00,77.2,72.0,29.94,WSW,245,4.0,12.0,84,0.00,,,0.00,weatherlink.com 1.10,2013-07-08 22:02:00,
2013-07-08 18:32:00,77.0,72.0,29.94,SW,217,11.0,13.0,85,0.00,,,0.00,weatherlink.com 1.10,2013-07-08 22:32:00,
2013-07-08 18:48:00,76.7,72.0,29.94,SSW,197,3.0,7.0,85,0.00,,,0.00,weatherlink.com 1.10,2013-07-08 22:48:00,
2013-07-08 19:02:00,76.2,72.0,29.95,SSW,204,4.0,13.0,86,0.00,,,0.00,weatherlink.com 1.10,2013-07-08 23:02:00,
2013-07-08 19:17:00,75.9,72.0,29.94,NE,47,2.0,9.0,87,0.00,,,0.00,weatherlink.com 1.10,2013-07-08 23:17:00,
2013-07-08 19:32:00,75.4,72.0,29.95,West,267,1.0,11.0,88,0.00,,,0.00,weatherlink.com 1.10,2013-07-08 23:32:00,
2013-07-08 20:02:00,73.7,71.0,29.95,NW,309,1.0,8.0,91,0.00,,,0.00,weatherlink.com 1.10,2013-07-09 00:02:00,
2013-07-08 20:17:00,73.1,71.0,29.96,ESE,121,1.0,7.0,92,0.00,,,0.00,weatherlink.com 1.10,2013-07-09 00:17:00,
2013-07-08 20:32:00,72.7,71.0,29.96,SW,222,5.0,6.0,93,0.00,,,0.00,weatherlink.com 1.10,2013-07-09 00:32:00,
2013-07-08 21:17:00,72.2,70.0,29.97,West,264,4.0,5.0,94,0.00,,,0.00,weatherlink.com 1.10,2013-07-09 01:17:00,
2013-07-08 22:02:00,72.1,71.0,30.00,NW,315,0.0,5.0,95,0.00,,,0.00,weatherlink.com 1.10,2013-07-09 02:02:00,
2013-07-08 22:32:00,71.9,71.0,30.00,SW,221,0.0,6.0,95,0.00,,,0.00,weatherlink.com 1.10,2013-07-09 02:32:00,
2013-07-08 23:02:00,71.8,71.0,30.00,ESE,117,0.0,5.0,96,0.00,,,0.00,weatherlink.com 1.10,2013-07-09 03:02:00,
2013-07-08 23:17:00,72.0,71.0,30.01,NNW,329,3.0,6.0,96,0.00,,,0.00,weatherlink.com 1.10,2013-07-09 03:17:00,
2013-07-08 23:32:00,72.0,71.0,30.00,WSW,250,1.0,5.0,96,0.00,,,0.00,weatherlink.com 1.10,2013-07-09 03:32:00,